Ternholm — OWIM2 — position and weather

sailwx.info

Track history (hours):
 
Tides and Currents Weather Stations Pressure Air Temp Water Temp Dewpoint Dewpoint Depression Visibility Wind Speed Wind Dir Waves Ship Positions

Ternholm

Last reported at 2016-Sep-18 19:29 UTC. Time now 2016-Sep-28 15:29 UTC.
Position N 58°57' E 004°19'.
Warning: this ship's position is 9 days out of date.

Length 141 m; draft 8.9 m.

Type: Tanker. MMSI: 219076000.

Date/timePositionNaut miles runAvg speedWind from/ knotsBaromVisibWave heightAir tempDewpointWater temp
2016-Sep-18 19:29N 58°57' E 004°19'4611.7
2016-Sep-18 15:33N 58°24' E 005°19'1211.7
2016-Sep-18 14:33N 58°16' E 005°36'4611.5
2016-Sep-18 10:34N 57°48' E 006°45'1211.6
2016-Sep-18 09:33N 57°47' E 007°07'8111.5
2016-Sep-18 02:31N 57°51' E 009°39'1111.4
2016-Sep-18 01:31N 57°49' E 009°60'1311.5
2016-Sep-18 00:25N 57°50' E 010°24'2111.4
2016-Sep-17 22:33N 57°47' E 011°03'1211.7
2016-Sep-17 21:33N 57°41' E 011°22'1110.6
2016-Sep-17 20:33N 57°37' E 011°40'8 6.0
2016-Sep-17 19:16N 57°41' E 011°52'0 0.0
2016-Sep-17 13:31N 57°41' E 011°52'0 0.0
2016-Sep-17 12:31N 57°41' E 011°52'0 0.0
2016-Sep-17 10:31N 57°41' E 011°52'0 0.0
2016-Sep-17 09:31N 57°41' E 011°52'0 0.0
2016-Sep-17 08:31N 57°41' E 011°52'0 0.0
2016-Sep-17 07:28N 57°41' E 011°52'0 0.0
2016-Sep-17 05:31N 57°41' E 011°52'0 0.0
2016-Sep-17 04:31N 57°41' E 011°52'0 0.0
2016-Sep-17 00:31N 57°41' E 011°52'3 0.4
2016-Sep-16 17:31N 57°40' E 011°47'0 0.0
2016-Sep-16 15:31N 57°40' E 011°47'0 0.0
2016-Sep-16 12:31N 57°40' E 011°47'0 0.0
2016-Sep-16 09:31N 57°40' E 011°47'0 0.0
2016-Sep-16 07:31N 57°40' E 011°47'0 0.0
2016-Sep-16 03:31N 57°40' E 011°47'0 0.0
2016-Sep-16 02:31N 57°40' E 011°47'0 0.0
2016-Sep-16 00:31N 57°40' E 011°47'0 0.0
2016-Sep-15 22:28N 57°40' E 011°47'0 0.0
2016-Sep-15 21:31N 57°40' E 011°47'0 0.0
2016-Sep-15 20:31N 57°40' E 011°47'0 0.0
2016-Sep-15 18:31N 57°40' E 011°47'23 3.8
2016-Sep-15 12:33N 57°18' E 011°48'1111.5
2016-Sep-15 11:33N 57°07' E 011°57'8111.6
2016-Sep-15 04:33N 55°50' E 012°45'1211.7
2016-Sep-15 03:33N 55°40' E 012°56'2110.4
2016-Sep-15 01:33N 55°21' E 012°40'3210.7
2016-Sep-14 22:33N 55°14' E 013°35'1211.7
2016-Sep-14 21:33N 55°14' E 013°56'4411.0
2016-Sep-14 17:33N 55°36' E 015°03'1211.7
2016-Sep-14 16:33N 55°41' E 015°21'3511.7
2016-Sep-14 13:33N 55°59' E 016°15'1211.7
2016-Sep-14 12:33N 56°04' E 016°33'2311.7
2016-Sep-14 10:33N 56°18' E 017°07'1211.7
2016-Sep-14 09:33N 56°25' E 017°24'1211.7
2016-Sep-14 08:33N 56°33' E 017°40'1211.7
2016-Sep-14 07:33N 56°40' E 017°57'1212.3
2016-Sep-14 06:33N 56°47' E 018°15'3511.6
2016-Sep-14 03:33N 57°14' E 018°56'18611.5
2016-Sep-13 11:27N 59°33' E 022°50'2211.7
2016-Sep-13 09:33N 59°40' E 023°32'2311.5
2016-Sep-13 07:33N 59°53' E 024°10'10 9.9
2016-Sep-13 06:33N 60°01' E 023°58'1 0.0
2016-Sep-11 19:30N 59°60' E 023°60'9 7.9
2016-Sep-11 18:24N 59°53' E 024°12'1011.3
2016-Sep-11 17:33N 59°46' E 024°00'1211.7
2016-Sep-11 16:33N 59°38' E 023°43'1111.5
2016-Sep-11 15:33N 59°34' E 023°22'3611.6
2016-Sep-11 12:27N 59°18' E 022°18'28711.5
2016-Sep-10 11:30N 55°52' E 016°06'1111.6
2016-Sep-10 10:34N 55°48' E 015°47'1111.1
2016-Sep-10 09:33N 55°53' E 015°29'1211.7
2016-Sep-10 08:33N 55°59' E 015°11'1211.6
2016-Sep-10 07:33N 56°05' E 014°54'4 0.3
2016-Sep-09 18:07N 56°09' E 014°49'6 7.7
2016-Sep-09 17:21N 56°03' E 014°54'911.2
2016-Sep-09 16:33N 55°54' E 014°52'1211.5
2016-Sep-09 15:33N 55°43' E 014°47'1211.7
2016-Sep-09 14:33N 55°32' E 014°42'1111.5
2016-Sep-09 13:33N 55°21' E 014°34'1211.6
2016-Sep-09 12:33N 55°12' E 014°21'1111.3
2016-Sep-09 11:33N 55°10' E 014°02'1211.7
2016-Sep-09 10:33N 55°10' E 013°42'1211.7
2016-Sep-09 09:33N 55°11' E 013°21'1211.6
2016-Sep-09 08:33N 55°13' E 013°01'1211.7
2016-Sep-09 07:33N 55°17' E 012°42'1010.1
2016-Sep-09 06:33N 55°27' E 012°40'1010.3
2016-Sep-09 05:33N 55°35' E 012°50'9 9.1
2016-Sep-09 04:33N 55°44' E 012°50'1211.6
2016-Sep-09 03:33N 55°54' E 012°39'1111.0
2016-Sep-09 02:33N 56°05' E 012°36'10 9.8
2016-Sep-09 01:34N 56°11' E 012°23'2310.7
2016-Sep-08 23:27N 56°29' E 011°59'1011.6
2016-Sep-08 22:33N 56°39' E 011°55'1111.2
2016-Sep-08 21:33N 56°50' E 011°49'1211.6
2016-Sep-08 20:33N 57°01' E 011°42'1111.5
2016-Sep-08 19:33N 57°12' E 011°35'  
Track history (hours):
 
Tides and Currents Weather Stations Pressure Air Temp Water Temp Dewpoint Dewpoint Depression Visibility Wind Speed Wind Dir Waves Ship Positions

Ternholm

Last reported at 2016-Sep-18 19:29 UTC. Time now 2016-Sep-28 15:29 UTC.
Position N 58°57' E 004°19'.
Warning: this ship's position is 9 days out of date.

Length 141 m; draft 8.9 m.

Type: Tanker. MMSI: 219076000.

Date/timePositionNaut miles runAvg speedWind from/ knotsBaromVisibWave heightAir tempDewpointWater temp
2016-Sep-18 19:29N 58°57' E 004°19'4611.7
2016-Sep-18 15:33N 58°24' E 005°19'1211.7
2016-Sep-18 14:33N 58°16' E 005°36'4611.5
2016-Sep-18 10:34N 57°48' E 006°45'1211.6
2016-Sep-18 09:33N 57°47' E 007°07'8111.5
2016-Sep-18 02:31N 57°51' E 009°39'1111.4
2016-Sep-18 01:31N 57°49' E 009°60'1311.5
2016-Sep-18 00:25N 57°50' E 010°24'2111.4
2016-Sep-17 22:33N 57°47' E 011°03'1211.7
2016-Sep-17 21:33N 57°41' E 011°22'1110.6
2016-Sep-17 20:33N 57°37' E 011°40'8 6.0
2016-Sep-17 19:16N 57°41' E 011°52'0 0.0
2016-Sep-17 13:31N 57°41' E 011°52'0 0.0
2016-Sep-17 12:31N 57°41' E 011°52'0 0.0
2016-Sep-17 10:31N 57°41' E 011°52'0 0.0
2016-Sep-17 09:31N 57°41' E 011°52'0 0.0
2016-Sep-17 08:31N 57°41' E 011°52'0 0.0
2016-Sep-17 07:28N 57°41' E 011°52'0 0.0
2016-Sep-17 05:31N 57°41' E 011°52'0 0.0
2016-Sep-17 04:31N 57°41' E 011°52'0 0.0
2016-Sep-17 00:31N 57°41' E 011°52'3 0.4
2016-Sep-16 17:31N 57°40' E 011°47'0 0.0
2016-Sep-16 15:31N 57°40' E 011°47'0 0.0
2016-Sep-16 12:31N 57°40' E 011°47'0 0.0
2016-Sep-16 09:31N 57°40' E 011°47'0 0.0
2016-Sep-16 07:31N 57°40' E 011°47'0 0.0
2016-Sep-16 03:31N 57°40' E 011°47'0 0.0
2016-Sep-16 02:31N 57°40' E 011°47'0 0.0
2016-Sep-16 00:31N 57°40' E 011°47'0 0.0
2016-Sep-15 22:28N 57°40' E 011°47'0 0.0
2016-Sep-15 21:31N 57°40' E 011°47'0 0.0
2016-Sep-15 20:31N 57°40' E 011°47'0 0.0
2016-Sep-15 18:31N 57°40' E 011°47'23 3.8
2016-Sep-15 12:33N 57°18' E 011°48'1111.5
2016-Sep-15 11:33N 57°07' E 011°57'8111.6
2016-Sep-15 04:33N 55°50' E 012°45'1211.7
2016-Sep-15 03:33N 55°40' E 012°56'2110.4
2016-Sep-15 01:33N 55°21' E 012°40'3210.7
2016-Sep-14 22:33N 55°14' E 013°35'1211.7
2016-Sep-14 21:33N 55°14' E 013°56'4411.0
2016-Sep-14 17:33N 55°36' E 015°03'1211.7
2016-Sep-14 16:33N 55°41' E 015°21'3511.7
2016-Sep-14 13:33N 55°59' E 016°15'1211.7
2016-Sep-14 12:33N 56°04' E 016°33'2311.7
2016-Sep-14 10:33N 56°18' E 017°07'1211.7
2016-Sep-14 09:33N 56°25' E 017°24'1211.7
2016-Sep-14 08:33N 56°33' E 017°40'1211.7
2016-Sep-14 07:33N 56°40' E 017°57'1212.3
2016-Sep-14 06:33N 56°47' E 018°15'3511.6
2016-Sep-14 03:33N 57°14' E 018°56'18611.5
2016-Sep-13 11:27N 59°33' E 022°50'2211.7
2016-Sep-13 09:33N 59°40' E 023°32'2311.5
2016-Sep-13 07:33N 59°53' E 024°10'10 9.9
2016-Sep-13 06:33N 60°01' E 023°58'1 0.0
2016-Sep-11 19:30N 59°60' E 023°60'9 7.9
2016-Sep-11 18:24N 59°53' E 024°12'1011.3
2016-Sep-11 17:33N 59°46' E 024°00'1211.7
2016-Sep-11 16:33N 59°38' E 023°43'1111.5
2016-Sep-11 15:33N 59°34' E 023°22'3611.6
2016-Sep-11 12:27N 59°18' E 022°18'28711.5
2016-Sep-10 11:30N 55°52' E 016°06'1111.6
2016-Sep-10 10:34N 55°48' E 015°47'1111.1
2016-Sep-10 09:33N 55°53' E 015°29'1211.7
2016-Sep-10 08:33N 55°59' E 015°11'1211.6
2016-Sep-10 07:33N 56°05' E 014°54'4 0.3
2016-Sep-09 18:07N 56°09' E 014°49'6 7.7
2016-Sep-09 17:21N 56°03' E 014°54'911.2
2016-Sep-09 16:33N 55°54' E 014°52'1211.5
2016-Sep-09 15:33N 55°43' E 014°47'1211.7
2016-Sep-09 14:33N 55°32' E 014°42'1111.5
2016-Sep-09 13:33N 55°21' E 014°34'1211.6
2016-Sep-09 12:33N 55°12' E 014°21'1111.3
2016-Sep-09 11:33N 55°10' E 014°02'1211.7
2016-Sep-09 10:33N 55°10' E 013°42'1211.7
2016-Sep-09 09:33N 55°11' E 013°21'1211.6
2016-Sep-09 08:33N 55°13' E 013°01'1211.7
2016-Sep-09 07:33N 55°17' E 012°42'1010.1
2016-Sep-09 06:33N 55°27' E 012°40'1010.3
2016-Sep-09 05:33N 55°35' E 012°50'9 9.1
2016-Sep-09 04:33N 55°44' E 012°50'1211.6
2016-Sep-09 03:33N 55°54' E 012°39'1111.0
2016-Sep-09 02:33N 56°05' E 012°36'10 9.8
2016-Sep-09 01:34N 56°11' E 012°23'2310.7
2016-Sep-08 23:27N 56°29' E 011°59'1011.6
2016-Sep-08 22:33N 56°39' E 011°55'1111.2
2016-Sep-08 21:33N 56°50' E 011°49'1211.6
2016-Sep-08 20:33N 57°01' E 011°42'1111.5
2016-Sep-08 19:33N 57°12' E 011°35'  

Dump ship's entire track history